Date,TemperatureHighF,TemperatureAvgF,TemperatureLowF,DewpointHighF,DewpointAvgF,DewpointLowF,HumidityHigh,HumidityAvg,HumidityLow,PressureMaxIn,PressureMinIn,WindSpeedMaxMPH,WindSpeedAvgMPH,GustSpeedMaxMPH,PrecipitationSumIn
2013-2-1,36,18,4,12,1,-5,65,50,25,30.26,30.11,23,2,27,0.00
2013-2-2,36,18,4,14,0,-12,47,44,39,30.32,30.26,12,2,13,0.00
2013-2-3,35,20,8,12,2,-7,53,45,35,30.26,30.02,8,1,10,0.00
2013-2-4,39,19,6,16,2,-6,56,48,31,30.08,29.99,14,3,14,0.00
2013-2-5,44,22,8,15,1,-10,49,41,30,30.11,29.99,11,2,11,0.00
2013-2-6,38,22,9,16,4,-6,60,47,30,30.02,29.90,11,1,11,0.00
2013-2-7,38,22,8,19,7,-6,61,52,42,30.08,30.02,9,2,10,0.00
2013-2-8,34,28,14,19,8,-2,67,43,32,30.02,29.70,27,8,29,0.00
2013-2-9,30,23,15,15,9,2,74,56,32,29.70,29.52,21,3,22,0.00
2013-2-10,23,12,1,9,0,-11,66,58,49,29.75,29.64,9,1,10,0.00
2013-2-11,23,13,0,10,1,-14,64,59,48,29.87,29.72,12,1,12,0.00
2013-2-12,32,9,-6,12,-6,-19,52,50,43,29.96,29.84,10,3,11,0.00
2013-2-13,37,18,7,18,3,-7,57,51,41,29.99,29.90,10,2,12,0.00
2013-2-14,36,17,6,14,0,-8,59,49,39,30.02,29.87,11,3,12,0.00
2013-2-15,30,15,4,4,-5,-12,54,40,30,30.14,30.02,16,3,17,0.00
2013-2-16,44,21,5,9,-6,-16,45,31,20,30.11,29.96,12,2,16,0.00
2013-2-17,41,22,7,11,-5,-15,56,31,20,29.96,29.61,13,3,14,0.00
2013-2-18,37,20,8,14,1,-10,58,45,28,29.87,29.64,10,2,10,0.00
2013-2-19,33,12,-2,5,-8,-19,44,40,30,29.84,29.58,8,0,10,0.00
2013-2-20,27,20,13,16,10,-5,80,66,44,29.58,29.40,8,1,8,0.00
2013-2-21,30,19,8,20,12,2,79,74,61,29.64,29.43,15,2,17,0.00
2013-2-22,25,11,-1,14,1,-11,74,63,47,29.72,29.58,11,3,15,0.00
2013-2-23,28,11,-4,13,-1,-17,72,57,51,29.72,29.46,9,1,10,0.00
2013-2-24,21,13,3,11,3,-9,76,62,50,29.70,29.46,9,1,10,0.00
2013-2-25,36,14,-3,22,5,-9,75,68,53,29.75,29.64,13,2,13,0.00
2013-2-26,23,12,0,8,0,-9,64,58,43,29.75,29.52,13,2,17,0.00
2013-2-27,34,10,-6,14,-5,-17,58,51,40,29.90,29.75,11,4,13,0.00
2013-2-28,36,14,-5,9,-6,-20,46,41,30,29.99,29.90,13,3,13,0.00